Comer, Georgia
Current Conditions -  °F | °C
As of 2:51 AM on Monday 24 Nov 2014 (Local Time) from KAHN Reporting Station
Overcast Overcast  
Wind Chill: 15°   Ceiling: 2300
Heat Index: 15°   Visibility: 10mi
Dew Point: 14°   Wind: 6mph
Humidity: 93%   Direction: 200°SSW
Pressure: 29.77"   Gusts: NA
Location:  34.06°N, 83.13°W
Report Text: KAHN 240751Z AUTO 20005KT 10SM OVC023 15/14 A2977 RMK AO2 SLP082 T01500139 $
Loading
Personal Weather Stations






























Interactive Weather Map New forecast layout! Learn more

10-Day Weather Forecast

Advertisements
Track Severe Weather on mobile